sensor_id;sensor_type;location;lat;lon;timestamp;P1;durP1;ratioP1;P2;durP2;ratioP2
62687;SDS011;48752;51.056;17.056;2023-01-29T00:01:58;10.00;;;5.85;;
62687;SDS011;48752;51.056;17.056;2023-01-29T00:04:24;11.32;;;6.10;;
62687;SDS011;48752;51.056;17.056;2023-01-29T00:09:46;13.35;;;6.97;;
62687;SDS011;48752;51.056;17.056;2023-01-29T00:12:15;11.25;;;6.82;;
62687;SDS011;48752;51.056;17.056;2023-01-29T00:14:40;14.85;;;7.68;;
62687;SDS011;48752;51.056;17.056;2023-01-29T00:17:10;11.98;;;6.07;;
62687;SDS011;48752;51.056;17.056;2023-01-29T00:19:55;15.32;;;7.45;;
62687;SDS011;48752;51.056;17.056;2023-01-29T00:22:23;15.55;;;6.68;;
62687;SDS011;48752;51.056;17.056;2023-01-29T00:24:51;11.30;;;6.80;;
62687;SDS011;48752;51.056;17.056;2023-01-29T00:27:17;12.35;;;7.13;;
62687;SDS011;48752;51.056;17.056;2023-01-29T00:29:43;17.60;;;8.25;;
62687;SDS011;48752;51.056;17.056;2023-01-29T00:32:30;14.65;;;7.20;;
62687;SDS011;48752;51.056;17.056;2023-01-29T00:34:57;18.40;;;8.20;;
62687;SDS011;48752;51.056;17.056;2023-01-29T00:37:24;15.98;;;8.10;;
62687;SDS011;48752;51.056;17.056;2023-01-29T00:39:49;19.27;;;7.60;;
62687;SDS011;48752;51.056;17.056;2023-01-29T00:42:15;14.18;;;8.63;;
62687;SDS011;48752;51.056;17.056;2023-01-29T00:45:16;15.10;;;7.45;;
62687;SDS011;48752;51.056;17.056;2023-01-29T00:47:50;15.70;;;9.35;;
62687;SDS011;48752;51.056;17.056;2023-01-29T00:50:19;15.13;;;8.30;;
62687;SDS011;48752;51.056;17.056;2023-01-29T00:52:46;16.58;;;8.13;;
62687;SDS011;48752;51.056;17.056;2023-01-29T00:55:15;18.00;;;8.48;;
62687;SDS011;48752;51.056;17.056;2023-01-29T00:57:42;16.65;;;8.98;;
62687;SDS011;48752;51.056;17.056;2023-01-29T01:00:09;15.75;;;7.47;;
62687;SDS011;48752;51.056;17.056;2023-01-29T01:02:36;15.60;;;8.80;;
62687;SDS011;48752;51.056;17.056;2023-01-29T01:05:20;14.63;;;8.13;;
62687;SDS011;48752;51.056;17.056;2023-01-29T01:07:46;12.68;;;7.32;;
62687;SDS011;48752;51.056;17.056;2023-01-29T01:10:17;14.35;;;8.13;;
62687;SDS011;48752;51.056;17.056;2023-01-29T01:13:01;17.00;;;6.85;;
62687;SDS011;48752;51.056;17.056;2023-01-29T01:15:30;14.63;;;8.55;;
62687;SDS011;48752;51.056;17.056;2023-01-29T01:18:06;15.05;;;8.55;;
62687;SDS011;48752;51.056;17.056;2023-01-29T01:20:36;18.95;;;8.65;;
62687;SDS011;48752;51.056;17.056;2023-01-29T01:23:04;17.13;;;8.57;;
62687;SDS011;48752;51.056;17.056;2023-01-29T01:25:30;14.65;;;8.38;;
62687;SDS011;48752;51.056;17.056;2023-01-29T01:27:58;19.35;;;8.90;;
62687;SDS011;48752;51.056;17.056;2023-01-29T01:30:25;16.75;;;9.18;;
62687;SDS011;48752;51.056;17.056;2023-01-29T01:32:59;23.33;;;9.02;;
62687;SDS011;48752;51.056;17.056;2023-01-29T01:35:28;16.90;;;9.20;;
62687;SDS011;48752;51.056;17.056;2023-01-29T01:40:25;14.07;;;8.27;;
62687;SDS011;48752;51.056;17.056;2023-01-29T01:42:56;15.65;;;7.40;;
62687;SDS011;48752;51.056;17.056;2023-01-29T01:53:13;12.95;;;7.00;;
62687;SDS011;48752;51.056;17.056;2023-01-29T01:55:58;13.43;;;6.43;;
62687;SDS011;48752;51.056;17.056;2023-01-29T01:58:31;14.63;;;7.18;;
62687;SDS011;48752;51.056;17.056;2023-01-29T02:00:59;10.18;;;6.55;;
62687;SDS011;48752;51.056;17.056;2023-01-29T02:03:27;14.98;;;5.88;;
62687;SDS011;48752;51.056;17.056;2023-01-29T02:06:11;11.23;;;6.20;;
62687;SDS011;48752;51.056;17.056;2023-01-29T02:09:01;10.02;;;6.05;;
62687;SDS011;48752;51.056;17.056;2023-01-29T02:11:49;11.23;;;5.95;;
62687;SDS011;48752;51.056;17.056;2023-01-29T02:14:24;7.85;;;5.38;;
62687;SDS011;48752;51.056;17.056;2023-01-29T02:16:50;8.25;;;5.00;;
62687;SDS011;48752;51.056;17.056;2023-01-29T02:19:27;9.90;;;5.45;;
62687;SDS011;48752;51.056;17.056;2023-01-29T02:22:23;12.35;;;5.45;;
62687;SDS011;48752;51.056;17.056;2023-01-29T02:28:29;9.90;;;4.85;;
62687;SDS011;48752;51.056;17.056;2023-01-29T02:31:45;8.32;;;3.83;;
62687;SDS011;48752;51.056;17.056;2023-01-29T02:34:40;6.82;;;4.60;;
62687;SDS011;48752;51.056;17.056;2023-01-29T02:37:29;9.63;;;4.90;;
62687;SDS011;48752;51.056;17.056;2023-01-29T02:52:19;11.80;;;5.97;;
62687;SDS011;48752;51.056;17.056;2023-01-29T02:54:53;10.23;;;5.72;;
62687;SDS011;48752;51.056;17.056;2023-01-29T02:57:39;10.50;;;5.93;;
62687;SDS011;48752;51.056;17.056;2023-01-29T03:00:20;7.60;;;5.40;;
62687;SDS011;48752;51.056;17.056;2023-01-29T03:02:52;10.13;;;5.47;;
62687;SDS011;48752;51.056;17.056;2023-01-29T03:05:31;8.95;;;5.50;;
62687;SDS011;48752;51.056;17.056;2023-01-29T03:08:38;11.63;;;5.80;;
62687;SDS011;48752;51.056;17.056;2023-01-29T03:11:11;10.40;;;5.63;;
62687;SDS011;48752;51.056;17.056;2023-01-29T03:21:55;9.95;;;5.18;;
62687;SDS011;48752;51.056;17.056;2023-01-29T03:27:42;7.05;;;5.50;;
62687;SDS011;48752;51.056;17.056;2023-01-29T03:30:29;7.70;;;4.90;;
62687;SDS011;48752;51.056;17.056;2023-01-29T03:33:17;7.20;;;4.43;;
62687;SDS011;48752;51.056;17.056;2023-01-29T03:35:46;6.63;;;4.93;;
62687;SDS011;48752;51.056;17.056;2023-01-29T03:38:25;5.95;;;4.55;;
62687;SDS011;48752;51.056;17.056;2023-01-29T03:41:03;7.20;;;4.97;;
62687;SDS011;48752;51.056;17.056;2023-01-29T03:43:44;7.50;;;5.63;;
62687;SDS011;48752;51.056;17.056;2023-01-29T03:51:56;8.55;;;5.53;;
62687;SDS011;48752;51.056;17.056;2023-01-29T03:54:28;8.13;;;5.30;;
62687;SDS011;48752;51.056;17.056;2023-01-29T04:02:21;8.02;;;6.03;;
62687;SDS011;48752;51.056;17.056;2023-01-29T04:04:58;6.85;;;5.50;;
62687;SDS011;48752;51.056;17.056;2023-01-29T04:07:28;7.30;;;5.60;;
62687;SDS011;48752;51.056;17.056;2023-01-29T04:10:05;12.63;;;6.03;;
62687;SDS011;48752;51.056;17.056;2023-01-29T04:12:42;10.20;;;6.40;;
62687;SDS011;48752;51.056;17.056;2023-01-29T04:15:15;7.85;;;5.82;;
62687;SDS011;48752;51.056;17.056;2023-01-29T04:17:45;12.27;;;6.40;;
62687;SDS011;48752;51.056;17.056;2023-01-29T04:20:15;11.73;;;6.40;;
62687;SDS011;48752;51.056;17.056;2023-01-29T04:22:45;8.07;;;5.63;;
62687;SDS011;48752;51.056;17.056;2023-01-29T04:25:15;11.68;;;7.55;;
62687;SDS011;48752;51.056;17.056;2023-01-29T04:30:46;21.73;;;7.05;;
62687;SDS011;48752;51.056;17.056;2023-01-29T04:36:08;10.10;;;7.05;;
62687;SDS011;48752;51.056;17.056;2023-01-29T04:46:46;8.18;;;5.72;;
62687;SDS011;48752;51.056;17.056;2023-01-29T04:52:07;12.13;;;6.82;;
62687;SDS011;48752;51.056;17.056;2023-01-29T04:54:51;13.85;;;6.28;;
62687;SDS011;48752;51.056;17.056;2023-01-29T05:00:33;9.23;;;6.38;;
62687;SDS011;48752;51.056;17.056;2023-01-29T05:03:02;11.38;;;6.80;;
62687;SDS011;48752;51.056;17.056;2023-01-29T05:05:30;11.55;;;6.00;;
62687;SDS011;48752;51.056;17.056;2023-01-29T05:07:59;8.63;;;6.20;;
62687;SDS011;48752;51.056;17.056;2023-01-29T05:10:33;12.55;;;6.55;;
62687;SDS011;48752;51.056;17.056;2023-01-29T05:13:00;12.32;;;7.30;;
62687;SDS011;48752;51.056;17.056;2023-01-29T05:15:39;10.88;;;6.53;;
62687;SDS011;48752;51.056;17.056;2023-01-29T05:18:37;10.18;;;6.45;;
62687;SDS011;48752;51.056;17.056;2023-01-29T05:21:06;14.23;;;7.05;;
62687;SDS011;48752;51.056;17.056;2023-01-29T05:23:33;9.10;;;6.13;;
62687;SDS011;48752;51.056;17.056;2023-01-29T05:25:59;10.80;;;6.45;;
62687;SDS011;48752;51.056;17.056;2023-01-29T05:28:25;9.85;;;6.45;;
62687;SDS011;48752;51.056;17.056;2023-01-29T05:30:52;10.50;;;5.80;;
62687;SDS011;48752;51.056;17.056;2023-01-29T05:35:54;8.60;;;5.57;;
62687;SDS011;48752;51.056;17.056;2023-01-29T05:38:21;12.13;;;6.03;;
62687;SDS011;48752;51.056;17.056;2023-01-29T05:40:47;8.90;;;5.32;;
62687;SDS011;48752;51.056;17.056;2023-01-29T05:43:16;9.38;;;5.60;;
62687;SDS011;48752;51.056;17.056;2023-01-29T05:45:50;8.88;;;5.13;;
62687;SDS011;48752;51.056;17.056;2023-01-29T05:48:22;8.18;;;5.90;;
62687;SDS011;48752;51.056;17.056;2023-01-29T05:50:48;10.02;;;5.70;;
62687;SDS011;48752;51.056;17.056;2023-01-29T05:53:14;10.85;;;5.85;;
62687;SDS011;48752;51.056;17.056;2023-01-29T05:55:42;8.43;;;5.68;;
62687;SDS011;48752;51.056;17.056;2023-01-29T05:58:09;9.98;;;5.30;;
62687;SDS011;48752;51.056;17.056;2023-01-29T06:00:36;9.30;;;5.90;;
62687;SDS011;48752;51.056;17.056;2023-01-29T06:03:03;7.80;;;5.22;;
62687;SDS011;48752;51.056;17.056;2023-01-29T06:05:29;12.25;;;6.38;;
62687;SDS011;48752;51.056;17.056;2023-01-29T06:07:55;10.80;;;7.15;;
62687;SDS011;48752;51.056;17.056;2023-01-29T06:10:21;9.60;;;5.30;;
62687;SDS011;48752;51.056;17.056;2023-01-29T06:12:47;8.55;;;5.93;;
62687;SDS011;48752;51.056;17.056;2023-01-29T06:15:13;10.63;;;5.07;;
62687;SDS011;48752;51.056;17.056;2023-01-29T06:17:40;9.80;;;5.20;;
62687;SDS011;48752;51.056;17.056;2023-01-29T06:20:08;8.68;;;5.80;;
62687;SDS011;48752;51.056;17.056;2023-01-29T06:22:36;11.70;;;6.90;;
62687;SDS011;48752;51.056;17.056;2023-01-29T06:25:02;9.55;;;5.72;;
62687;SDS011;48752;51.056;17.056;2023-01-29T06:27:30;11.10;;;5.50;;
62687;SDS011;48752;51.056;17.056;2023-01-29T06:29:57;10.73;;;5.05;;
62687;SDS011;48752;51.056;17.056;2023-01-29T06:32:25;8.75;;;5.30;;
62687;SDS011;48752;51.056;17.056;2023-01-29T06:34:52;10.52;;;5.63;;
62687;SDS011;48752;51.056;17.056;2023-01-29T06:37:19;9.85;;;5.90;;
62687;SDS011;48752;51.056;17.056;2023-01-29T06:39:45;9.23;;;5.45;;
62687;SDS011;48752;51.056;17.056;2023-01-29T06:42:15;10.40;;;5.68;;
62687;SDS011;48752;51.056;17.056;2023-01-29T06:44:42;7.50;;;5.45;;
62687;SDS011;48752;51.056;17.056;2023-01-29T06:47:08;6.65;;;4.78;;
62687;SDS011;48752;51.056;17.056;2023-01-29T06:49:49;8.32;;;4.97;;
62687;SDS011;48752;51.056;17.056;2023-01-29T06:52:15;9.20;;;5.18;;
62687;SDS011;48752;51.056;17.056;2023-01-29T06:54:41;6.80;;;4.43;;
62687;SDS011;48752;51.056;17.056;2023-01-29T06:57:06;9.80;;;5.65;;
62687;SDS011;48752;51.056;17.056;2023-01-29T06:59:31;7.90;;;5.88;;
62687;SDS011;48752;51.056;17.056;2023-01-29T07:01:58;9.95;;;5.65;;
62687;SDS011;48752;51.056;17.056;2023-01-29T07:04:25;11.90;;;5.47;;
62687;SDS011;48752;51.056;17.056;2023-01-29T07:06:52;10.20;;;5.47;;
62687;SDS011;48752;51.056;17.056;2023-01-29T07:09:18;9.73;;;6.00;;
62687;SDS011;48752;51.056;17.056;2023-01-29T07:11:44;8.70;;;5.82;;
62687;SDS011;48752;51.056;17.056;2023-01-29T07:14:18;11.85;;;6.13;;
62687;SDS011;48752;51.056;17.056;2023-01-29T07:16:51;9.43;;;6.10;;
62687;SDS011;48752;51.056;17.056;2023-01-29T07:19:18;10.18;;;5.70;;
62687;SDS011;48752;51.056;17.056;2023-01-29T07:21:44;9.93;;;6.13;;
62687;SDS011;48752;51.056;17.056;2023-01-29T07:24:27;9.30;;;5.32;;
62687;SDS011;48752;51.056;17.056;2023-01-29T07:26:53;11.15;;;5.97;;
62687;SDS011;48752;51.056;17.056;2023-01-29T07:29:18;8.90;;;5.85;;
62687;SDS011;48752;51.056;17.056;2023-01-29T07:31:47;9.75;;;6.95;;
62687;SDS011;48752;51.056;17.056;2023-01-29T07:34:13;8.65;;;5.45;;
62687;SDS011;48752;51.056;17.056;2023-01-29T07:36:40;8.77;;;5.15;;
62687;SDS011;48752;51.056;17.056;2023-01-29T07:39:05;9.20;;;6.00;;
62687;SDS011;48752;51.056;17.056;2023-01-29T07:41:37;10.18;;;5.55;;
62687;SDS011;48752;51.056;17.056;2023-01-29T07:44:03;10.13;;;6.00;;
62687;SDS011;48752;51.056;17.056;2023-01-29T07:46:30;11.40;;;5.80;;
62687;SDS011;48752;51.056;17.056;2023-01-29T07:48:57;10.55;;;5.55;;
62687;SDS011;48752;51.056;17.056;2023-01-29T07:53:55;6.70;;;4.93;;
62687;SDS011;48752;51.056;17.056;2023-01-29T07:56:22;11.30;;;5.57;;
62687;SDS011;48752;51.056;17.056;2023-01-29T07:58:48;12.90;;;6.20;;
62687;SDS011;48752;51.056;17.056;2023-01-29T08:01:16;8.50;;;5.75;;
62687;SDS011;48752;51.056;17.056;2023-01-29T08:03:42;10.45;;;6.38;;
62687;SDS011;48752;51.056;17.056;2023-01-29T08:06:09;10.88;;;6.15;;
62687;SDS011;48752;51.056;17.056;2023-01-29T08:08:35;11.13;;;6.15;;
62687;SDS011;48752;51.056;17.056;2023-01-29T08:11:03;13.40;;;6.63;;
62687;SDS011;48752;51.056;17.056;2023-01-29T08:13:30;12.15;;;6.10;;
62687;SDS011;48752;51.056;17.056;2023-01-29T08:16:01;10.05;;;6.13;;
62687;SDS011;48752;51.056;17.056;2023-01-29T08:18:39;12.45;;;7.43;;
62687;SDS011;48752;51.056;17.056;2023-01-29T08:21:08;11.50;;;6.47;;
62687;SDS011;48752;51.056;17.056;2023-01-29T08:23:34;13.77;;;7.20;;
62687;SDS011;48752;51.056;17.056;2023-01-29T08:26:01;16.45;;;7.03;;
62687;SDS011;48752;51.056;17.056;2023-01-29T08:28:34;14.27;;;6.63;;
62687;SDS011;48752;51.056;17.056;2023-01-29T08:31:00;13.05;;;7.28;;
62687;SDS011;48752;51.056;17.056;2023-01-29T08:33:26;11.30;;;6.60;;
62687;SDS011;48752;51.056;17.056;2023-01-29T08:35:54;11.65;;;7.57;;
62687;SDS011;48752;51.056;17.056;2023-01-29T08:38:20;11.50;;;6.60;;
62687;SDS011;48752;51.056;17.056;2023-01-29T08:40:46;18.98;;;7.72;;
62687;SDS011;48752;51.056;17.056;2023-01-29T08:43:13;12.35;;;6.50;;
62687;SDS011;48752;51.056;17.056;2023-01-29T08:45:40;9.75;;;6.57;;
62687;SDS011;48752;51.056;17.056;2023-01-29T08:48:09;12.20;;;6.78;;
62687;SDS011;48752;51.056;17.056;2023-01-29T08:50:35;10.70;;;7.00;;
62687;SDS011;48752;51.056;17.056;2023-01-29T08:53:03;10.00;;;6.53;;
62687;SDS011;48752;51.056;17.056;2023-01-29T08:55:38;12.07;;;6.82;;
62687;SDS011;48752;51.056;17.056;2023-01-29T08:58:11;12.20;;;7.45;;
62687;SDS011;48752;51.056;17.056;2023-01-29T09:00:39;11.13;;;6.88;;
62687;SDS011;48752;51.056;17.056;2023-01-29T09:03:06;16.33;;;8.98;;
62687;SDS011;48752;51.056;17.056;2023-01-29T09:05:33;13.60;;;7.70;;
62687;SDS011;48752;51.056;17.056;2023-01-29T09:08:00;10.93;;;6.18;;
62687;SDS011;48752;51.056;17.056;2023-01-29T09:10:27;11.80;;;7.95;;
62687;SDS011;48752;51.056;17.056;2023-01-29T09:12:54;13.50;;;7.45;;
62687;SDS011;48752;51.056;17.056;2023-01-29T09:15:21;12.57;;;7.28;;
62687;SDS011;48752;51.056;17.056;2023-01-29T09:18:03;11.77;;;6.55;;
62687;SDS011;48752;51.056;17.056;2023-01-29T09:20:30;12.88;;;7.65;;
62687;SDS011;48752;51.056;17.056;2023-01-29T09:23:03;13.25;;;7.90;;
62687;SDS011;48752;51.056;17.056;2023-01-29T09:25:31;15.00;;;8.15;;
62687;SDS011;48752;51.056;17.056;2023-01-29T09:27:57;11.40;;;7.50;;
62687;SDS011;48752;51.056;17.056;2023-01-29T09:30:25;12.55;;;8.13;;
62687;SDS011;48752;51.056;17.056;2023-01-29T09:32:50;16.75;;;7.57;;
62687;SDS011;48752;51.056;17.056;2023-01-29T09:35:17;19.05;;;8.20;;
62687;SDS011;48752;51.056;17.056;2023-01-29T09:37:47;14.57;;;8.05;;
62687;SDS011;48752;51.056;17.056;2023-01-29T09:40:17;13.82;;;7.78;;
62687;SDS011;48752;51.056;17.056;2023-01-29T09:42:48;16.48;;;7.95;;
62687;SDS011;48752;51.056;17.056;2023-01-29T09:45:37;14.05;;;7.18;;
62687;SDS011;48752;51.056;17.056;2023-01-29T09:48:07;12.40;;;7.30;;
62687;SDS011;48752;51.056;17.056;2023-01-29T09:50:39;20.73;;;7.90;;
62687;SDS011;48752;51.056;17.056;2023-01-29T09:55:45;12.57;;;7.55;;
62687;SDS011;48752;51.056;17.056;2023-01-29T10:01:02;12.93;;;7.78;;
62687;SDS011;48752;51.056;17.056;2023-01-29T10:27:51;12.35;;;7.28;;
62687;SDS011;48752;51.056;17.056;2023-01-29T10:32:49;13.73;;;7.10;;
62687;SDS011;48752;51.056;17.056;2023-01-29T10:35:23;17.02;;;7.75;;
62687;SDS011;48752;51.056;17.056;2023-01-29T10:37:54;11.40;;;7.38;;
62687;SDS011;48752;51.056;17.056;2023-01-29T10:40:22;14.18;;;7.85;;
62687;SDS011;48752;51.056;17.056;2023-01-29T10:43:01;13.20;;;7.53;;
62687;SDS011;48752;51.056;17.056;2023-01-29T11:02:25;14.05;;;8.80;;
62687;SDS011;48752;51.056;17.056;2023-01-29T11:04:52;15.18;;;7.85;;
62687;SDS011;48752;51.056;17.056;2023-01-29T11:07:18;12.57;;;6.20;;
62687;SDS011;48752;51.056;17.056;2023-01-29T11:12:30;11.20;;;6.72;;
62687;SDS011;48752;51.056;17.056;2023-01-29T11:20:38;11.65;;;6.30;;
62687;SDS011;48752;51.056;17.056;2023-01-29T11:23:17;13.65;;;7.22;;
62687;SDS011;48752;51.056;17.056;2023-01-29T11:25:53;14.73;;;6.70;;
62687;SDS011;48752;51.056;17.056;2023-01-29T11:28:37;12.13;;;7.13;;
62687;SDS011;48752;51.056;17.056;2023-01-29T11:34:00;12.02;;;7.72;;
62687;SDS011;48752;51.056;17.056;2023-01-29T11:36:36;15.02;;;7.80;;
62687;SDS011;48752;51.056;17.056;2023-01-29T11:41:49;11.77;;;7.15;;
62687;SDS011;48752;51.056;17.056;2023-01-29T11:44:17;12.55;;;6.80;;
62687;SDS011;48752;51.056;17.056;2023-01-29T11:46:47;9.80;;;6.32;;
62687;SDS011;48752;51.056;17.056;2023-01-29T11:49:27;12.48;;;6.25;;
62687;SDS011;48752;51.056;17.056;2023-01-29T11:52:10;10.75;;;6.40;;
62687;SDS011;48752;51.056;17.056;2023-01-29T11:54:43;10.40;;;6.70;;
62687;SDS011;48752;51.056;17.056;2023-01-29T11:57:33;10.43;;;6.68;;
62687;SDS011;48752;51.056;17.056;2023-01-29T12:00:05;11.10;;;6.70;;
62687;SDS011;48752;51.056;17.056;2023-01-29T12:05:22;10.38;;;6.75;;
62687;SDS011;48752;51.056;17.056;2023-01-29T12:07:55;13.02;;;6.90;;
62687;SDS011;48752;51.056;17.056;2023-01-29T12:10:42;13.07;;;5.63;;
62687;SDS011;48752;51.056;17.056;2023-01-29T12:15:36;11.60;;;6.20;;
62687;SDS011;48752;51.056;17.056;2023-01-29T12:18:48;11.75;;;6.60;;
62687;SDS011;48752;51.056;17.056;2023-01-29T12:21:32;12.85;;;6.13;;
62687;SDS011;48752;51.056;17.056;2023-01-29T12:27:34;11.50;;;6.00;;
62687;SDS011;48752;51.056;17.056;2023-01-29T12:30:03;12.55;;;6.32;;
62687;SDS011;48752;51.056;17.056;2023-01-29T12:36:19;8.93;;;4.45;;
62687;SDS011;48752;51.056;17.056;2023-01-29T12:38:47;8.57;;;5.45;;
62687;SDS011;48752;51.056;17.056;2023-01-29T12:44:00;12.18;;;4.95;;
62687;SDS011;48752;51.056;17.056;2023-01-29T12:49:00;9.95;;;5.75;;
62687;SDS011;48752;51.056;17.056;2023-01-29T12:51:33;8.52;;;5.05;;
62687;SDS011;48752;51.056;17.056;2023-01-29T12:54:06;10.07;;;5.55;;
62687;SDS011;48752;51.056;17.056;2023-01-29T12:56:45;11.15;;;5.93;;
62687;SDS011;48752;51.056;17.056;2023-01-29T13:04:55;9.25;;;5.85;;
62687;SDS011;48752;51.056;17.056;2023-01-29T13:07:29;10.02;;;5.75;;
62687;SDS011;48752;51.056;17.056;2023-01-29T13:10:11;9.43;;;5.75;;
62687;SDS011;48752;51.056;17.056;2023-01-29T13:12:42;13.68;;;7.53;;
62687;SDS011;48752;51.056;17.056;2023-01-29T13:20:45;12.52;;;6.15;;
62687;SDS011;48752;51.056;17.056;2023-01-29T13:23:23;11.90;;;7.78;;
62687;SDS011;48752;51.056;17.056;2023-01-29T13:25:55;13.27;;;5.93;;
62687;SDS011;48752;51.056;17.056;2023-01-29T13:28:22;15.35;;;7.43;;
62687;SDS011;48752;51.056;17.056;2023-01-29T13:36:25;11.30;;;6.32;;
62687;SDS011;48752;51.056;17.056;2023-01-29T13:39:03;13.23;;;6.97;;
62687;SDS011;48752;51.056;17.056;2023-01-29T13:41:40;10.07;;;7.03;;
62687;SDS011;48752;51.056;17.056;2023-01-29T13:44:28;14.40;;;6.68;;
62687;SDS011;48752;51.056;17.056;2023-01-29T13:46:57;15.23;;;7.38;;
62687;SDS011;48752;51.056;17.056;2023-01-29T13:49:30;11.70;;;6.55;;
62687;SDS011;48752;51.056;17.056;2023-01-29T13:55:05;15.15;;;7.75;;
62687;SDS011;48752;51.056;17.056;2023-01-29T14:08:01;12.98;;;7.07;;
62687;SDS011;48752;51.056;17.056;2023-01-29T14:10:33;14.15;;;7.88;;
62687;SDS011;48752;51.056;17.056;2023-01-29T14:15:27;14.10;;;7.10;;
62687;SDS011;48752;51.056;17.056;2023-01-29T14:23:32;12.15;;;7.40;;
62687;SDS011;48752;51.056;17.056;2023-01-29T14:28:33;19.23;;;7.97;;
62687;SDS011;48752;51.056;17.056;2023-01-29T14:31:06;14.35;;;7.40;;
62687;SDS011;48752;51.056;17.056;2023-01-29T14:33:34;14.70;;;7.43;;
62687;SDS011;48752;51.056;17.056;2023-01-29T14:36:06;20.42;;;8.93;;
62687;SDS011;48752;51.056;17.056;2023-01-29T14:38:50;14.85;;;8.00;;
62687;SDS011;48752;51.056;17.056;2023-01-29T14:41:24;22.08;;;7.90;;
62687;SDS011;48752;51.056;17.056;2023-01-29T14:46:59;23.42;;;8.68;;
62687;SDS011;48752;51.056;17.056;2023-01-29T14:52:32;16.70;;;9.75;;
62687;SDS011;48752;51.056;17.056;2023-01-29T14:55:04;18.25;;;10.07;;
62687;SDS011;48752;51.056;17.056;2023-01-29T14:58:02;20.95;;;9.27;;
62687;SDS011;48752;51.056;17.056;2023-01-29T15:00:33;14.70;;;8.98;;
62687;SDS011;48752;51.056;17.056;2023-01-29T15:03:01;18.25;;;9.95;;
62687;SDS011;48752;51.056;17.056;2023-01-29T15:05:35;22.40;;;10.02;;
62687;SDS011;48752;51.056;17.056;2023-01-29T15:08:12;25.02;;;10.43;;
62687;SDS011;48752;51.056;17.056;2023-01-29T15:10:43;18.37;;;10.33;;
62687;SDS011;48752;51.056;17.056;2023-01-29T15:16:08;21.98;;;10.18;;
62687;SDS011;48752;51.056;17.056;2023-01-29T15:18:39;20.70;;;9.45;;
62687;SDS011;48752;51.056;17.056;2023-01-29T15:21:13;22.75;;;10.20;;
62687;SDS011;48752;51.056;17.056;2023-01-29T15:23:41;20.60;;;9.82;;
62687;SDS011;48752;51.056;17.056;2023-01-29T15:26:11;22.15;;;10.65;;
62687;SDS011;48752;51.056;17.056;2023-01-29T15:28:56;21.00;;;10.23;;
62687;SDS011;48752;51.056;17.056;2023-01-29T15:31:23;21.63;;;11.10;;
62687;SDS011;48752;51.056;17.056;2023-01-29T15:33:50;20.45;;;10.43;;
62687;SDS011;48752;51.056;17.056;2023-01-29T15:36:19;22.25;;;10.57;;
62687;SDS011;48752;51.056;17.056;2023-01-29T15:38:47;21.25;;;10.30;;
62687;SDS011;48752;51.056;17.056;2023-01-29T15:41:34;21.30;;;9.73;;
62687;SDS011;48752;51.056;17.056;2023-01-29T15:44:00;16.85;;;9.30;;
62687;SDS011;48752;51.056;17.056;2023-01-29T15:46:33;19.63;;;9.95;;
62687;SDS011;48752;51.056;17.056;2023-01-29T15:49:05;20.23;;;10.60;;
62687;SDS011;48752;51.056;17.056;2023-01-29T15:51:32;22.73;;;10.93;;
62687;SDS011;48752;51.056;17.056;2023-01-29T15:54:01;18.80;;;10.80;;
62687;SDS011;48752;51.056;17.056;2023-01-29T15:56:28;20.30;;;10.65;;
62687;SDS011;48752;51.056;17.056;2023-01-29T15:58:57;21.15;;;10.38;;
62687;SDS011;48752;51.056;17.056;2023-01-29T16:01:26;20.13;;;10.55;;
62687;SDS011;48752;51.056;17.056;2023-01-29T16:03:53;23.52;;;11.15;;
62687;SDS011;48752;51.056;17.056;2023-01-29T16:06:19;26.30;;;11.00;;
62687;SDS011;48752;51.056;17.056;2023-01-29T16:08:52;24.13;;;10.95;;
62687;SDS011;48752;51.056;17.056;2023-01-29T16:11:18;25.23;;;11.35;;
62687;SDS011;48752;51.056;17.056;2023-01-29T16:13:44;25.27;;;11.05;;
62687;SDS011;48752;51.056;17.056;2023-01-29T16:16:18;26.52;;;13.23;;
62687;SDS011;48752;51.056;17.056;2023-01-29T16:18:46;25.65;;;13.32;;
62687;SDS011;48752;51.056;17.056;2023-01-29T16:21:14;24.10;;;12.98;;
62687;SDS011;48752;51.056;17.056;2023-01-29T16:23:49;27.02;;;12.73;;
62687;SDS011;48752;51.056;17.056;2023-01-29T16:26:18;22.90;;;11.70;;
62687;SDS011;48752;51.056;17.056;2023-01-29T16:28:55;22.92;;;12.63;;
62687;SDS011;48752;51.056;17.056;2023-01-29T16:31:26;28.02;;;12.70;;
62687;SDS011;48752;51.056;17.056;2023-01-29T16:33:53;30.67;;;13.82;;
62687;SDS011;48752;51.056;17.056;2023-01-29T16:36:34;27.17;;;13.18;;
62687;SDS011;48752;51.056;17.056;2023-01-29T16:39:03;32.25;;;13.68;;
62687;SDS011;48752;51.056;17.056;2023-01-29T16:41:31;28.45;;;14.30;;
62687;SDS011;48752;51.056;17.056;2023-01-29T16:46:45;32.47;;;14.18;;
62687;SDS011;48752;51.056;17.056;2023-01-29T16:49:42;27.42;;;13.65;;
62687;SDS011;48752;51.056;17.056;2023-01-29T16:54:44;28.33;;;14.10;;
62687;SDS011;48752;51.056;17.056;2023-01-29T16:57:14;27.95;;;14.70;;
62687;SDS011;48752;51.056;17.056;2023-01-29T17:00:01;31.58;;;13.48;;
62687;SDS011;48752;51.056;17.056;2023-01-29T17:02:32;33.47;;;14.18;;
62687;SDS011;48752;51.056;17.056;2023-01-29T17:05:09;31.70;;;13.43;;
62687;SDS011;48752;51.056;17.056;2023-01-29T17:10:14;29.08;;;13.25;;
62687;SDS011;48752;51.056;17.056;2023-01-29T17:15:27;26.15;;;13.77;;
62687;SDS011;48752;51.056;17.056;2023-01-29T17:18:01;25.60;;;13.30;;
62687;SDS011;48752;51.056;17.056;2023-01-29T17:20:28;25.02;;;13.05;;
62687;SDS011;48752;51.056;17.056;2023-01-29T17:22:55;27.05;;;13.90;;
62687;SDS011;48752;51.056;17.056;2023-01-29T17:25:21;26.27;;;13.25;;
62687;SDS011;48752;51.056;17.056;2023-01-29T17:27:47;26.27;;;13.13;;
62687;SDS011;48752;51.056;17.056;2023-01-29T17:30:19;25.98;;;13.07;;
62687;SDS011;48752;51.056;17.056;2023-01-29T17:32:45;24.30;;;12.77;;
62687;SDS011;48752;51.056;17.056;2023-01-29T17:35:11;24.98;;;13.88;;
62687;SDS011;48752;51.056;17.056;2023-01-29T17:37:38;26.08;;;13.77;;
62687;SDS011;48752;51.056;17.056;2023-01-29T17:40:07;28.95;;;13.45;;
62687;SDS011;48752;51.056;17.056;2023-01-29T17:42:44;30.00;;;13.93;;
62687;SDS011;48752;51.056;17.056;2023-01-29T17:45:11;32.17;;;15.38;;
62687;SDS011;48752;51.056;17.056;2023-01-29T17:47:37;28.02;;;16.23;;
62687;SDS011;48752;51.056;17.056;2023-01-29T17:50:09;31.55;;;15.20;;
62687;SDS011;48752;51.056;17.056;2023-01-29T17:52:51;27.13;;;14.07;;
62687;SDS011;48752;51.056;17.056;2023-01-29T17:55:22;30.25;;;14.77;;
62687;SDS011;48752;51.056;17.056;2023-01-29T17:57:47;30.67;;;15.00;;
62687;SDS011;48752;51.056;17.056;2023-01-29T18:00:14;29.90;;;14.15;;
62687;SDS011;48752;51.056;17.056;2023-01-29T18:02:42;29.25;;;15.30;;
62687;SDS011;48752;51.056;17.056;2023-01-29T18:05:09;37.60;;;16.90;;
62687;SDS011;48752;51.056;17.056;2023-01-29T18:07:36;35.85;;;16.52;;
62687;SDS011;48752;51.056;17.056;2023-01-29T18:10:03;38.22;;;17.35;;
62687;SDS011;48752;51.056;17.056;2023-01-29T18:12:28;31.63;;;16.92;;
62687;SDS011;48752;51.056;17.056;2023-01-29T18:14:55;35.38;;;16.48;;
62687;SDS011;48752;51.056;17.056;2023-01-29T18:17:20;34.03;;;17.10;;
62687;SDS011;48752;51.056;17.056;2023-01-29T18:19:47;31.48;;;15.57;;
62687;SDS011;48752;51.056;17.056;2023-01-29T18:22:12;29.73;;;16.20;;
62687;SDS011;48752;51.056;17.056;2023-01-29T18:24:38;32.58;;;16.10;;